Time;durP1;ratioP1;P1;durP2;ratioP2;P2;SDS_P1;SDS_P2;PMS_P1;PMS_P2;Temp;Humidity;BMP_temperature;BMP_pressure;BME280_temperature;BME280_humidity;BME280_pressure;Samples;Min_cycle;Max_cycle;Signal;HPM_P1;HPM_P2
2022/07/05 00:00:49;;;;;;;2.58;1.80;;;;;;;;;;5075721;28;20118;-68
2022/07/05 00:03:16;;;;;;;2.25;1.55;;;;;;;;;;5074482;28;20031;-68
2022/07/05 00:05:42;;;;;;;5.45;1.77;;;;;;;;;;5075768;28;20519;-68
2022/07/05 00:08:08;;;;;;;4.32;1.85;;;;;;;;;;5075085;28;20051;-68
2022/07/05 00:10:36;;;;;;;3.47;1.70;;;;;;;;;;5075125;28;20021;-68
2022/07/05 00:13:03;;;;;;;4.15;1.75;;;;;;;;;;5074174;28;20024;-68
2022/07/05 00:15:30;;;;;;;4.75;2.05;;;;;;;;;;5075424;28;20057;-67
2022/07/05 00:17:56;;;;;;;2.05;1.50;;;;;;;;;;5074718;28;20039;-67
2022/07/05 00:20:22;;;;;;;7.22;2.15;;;;;;;;;;5075230;28;20021;-68
2022/07/05 00:22:49;;;;;;;4.38;1.67;;;;;;;;;;5075410;28;20012;-68
2022/07/05 00:25:15;;;;;;;4.10;2.00;;;;;;;;;;5075105;28;20033;-68
2022/07/05 00:27:41;;;;;;;5.03;1.95;;;;;;;;;;5075174;28;20485;-68
2022/07/05 00:30:08;;;;;;;4.97;1.80;;;;;;;;;;5073342;28;20121;-68
2022/07/05 00:32:34;;;;;;;3.50;1.95;;;;;;;;;;5075333;28;20016;-68
2022/07/05 00:35:01;;;;;;;3.15;1.80;;;;;;;;;;5075277;28;20034;-67
2022/07/05 00:37:27;;;;;;;4.30;1.83;;;;;;;;;;5074906;28;20016;-68
2022/07/05 00:39:53;;;;;;;3.00;1.90;;;;;;;;;;5074487;28;20027;-67
2022/07/05 00:42:20;;;;;;;4.88;1.92;;;;;;;;;;5074381;28;20093;-68
2022/07/05 00:44:46;;;;;;;4.13;2.22;;;;;;;;;;5074457;28;20028;-68
2022/07/05 00:47:13;;;;;;;2.63;1.80;;;;;;;;;;5074816;28;20450;-68
2022/07/05 00:49:40;;;;;;;7.88;2.13;;;;;;;;;;5074693;28;20024;-68
2022/07/05 00:52:06;;;;;;;5.35;2.05;;;;;;;;;;5074835;28;20397;-68
2022/07/05 00:54:35;;;;;;;4.40;1.92;;;;;;;;;;5074458;28;20044;-67
2022/07/05 00:57:01;;;;;;;4.88;1.73;;;;;;;;;;5073813;28;20473;-67
2022/07/05 00:59:28;;;;;;;6.00;1.90;;;;;;;;;;5074537;28;20021;-68
2022/07/05 01:01:55;;;;;;;2.83;1.80;;;;;;;;;;5074839;28;20031;-68
2022/07/05 01:04:22;;;;;;;6.10;1.90;;;;;;;;;;5074492;28;20118;-68
2022/07/05 01:06:49;;;;;;;4.07;1.95;;;;;;;;;;5074281;28;20034;-67
2022/07/05 01:09:16;;;;;;;4.00;2.00;;;;;;;;;;5073293;28;20040;-67
2022/07/05 01:11:44;;;;;;;4.22;1.80;;;;;;;;;;5074538;28;20028;-68
2022/07/05 01:14:12;;;;;;;7.88;2.15;;;;;;;;;;5074429;28;20025;-68
2022/07/05 01:16:38;;;;;;;2.55;1.70;;;;;;;;;;5074265;28;20031;-68
2022/07/05 01:19:10;;;;;;;6.45;2.10;;;;;;;;;;5074170;28;20020;-67
2022/07/05 01:21:40;;;;;;;3.85;2.30;;;;;;;;;;5074128;28;20026;-67
2022/07/05 01:24:17;;;;;;;4.93;2.08;;;;;;;;;;5084517;28;20036;-67
2022/07/05 01:26:46;;;;;;;3.35;1.85;;;;;;;;;;5107130;27;20054;-68
2022/07/05 01:29:12;;;;;;;7.00;2.10;;;;;;;;;;5073967;28;20040;-67
2022/07/05 01:31:39;;;;;;;3.42;1.98;;;;;;;;;;5073789;28;20110;-68
2022/07/05 01:34:06;;;;;;;5.85;2.08;;;;;;;;;;5073955;28;20389;-67
2022/07/05 01:36:33;;;;;;;3.35;1.88;;;;;;;;;;5072297;28;20032;-67
2022/07/05 01:39:00;;;;;;;3.72;1.90;;;;;;;;;;5073063;28;20032;-68
2022/07/05 01:41:26;;;;;;;3.67;2.08;;;;;;;;;;5073778;28;20021;-68
2022/07/05 01:43:53;;;;;;;4.65;2.17;;;;;;;;;;5073708;28;20027;-67
2022/07/05 01:46:21;;;;;;;1.95;1.73;;;;;;;;;;5073700;28;20029;-68
2022/07/05 01:48:48;;;;;;;4.22;1.95;;;;;;;;;;5073504;28;20062;-68
2022/07/05 01:51:18;;;;;;;4.95;2.20;;;;;;;;;;5072109;28;20028;-68
2022/07/05 01:53:46;;;;;;;3.42;1.90;;;;;;;;;;5073569;28;20044;-67
2022/07/05 01:56:13;;;;;;;2.67;1.90;;;;;;;;;;5073725;28;20069;-68
2022/07/05 01:58:39;;;;;;;2.15;1.90;;;;;;;;;;5073244;28;20024;-68
2022/07/05 02:01:06;;;;;;;6.43;2.20;;;;;;;;;;5073371;28;20028;-68
2022/07/05 02:03:32;;;;;;;2.65;2.00;;;;;;;;;;5073387;28;20036;-68
2022/07/05 02:05:59;;;;;;;7.85;1.92;;;;;;;;;;5072449;28;20031;-68
2022/07/05 02:08:29;;;;;;;2.28;2.03;;;;;;;;;;5073106;28;20109;-67
2022/07/05 02:10:56;;;;;;;4.90;2.20;;;;;;;;;;5071880;28;20029;-68
2022/07/05 02:13:22;;;;;;;3.10;2.05;;;;;;;;;;5073486;28;20024;-68
2022/07/05 02:15:49;;;;;;;3.30;1.92;;;;;;;;;;5073149;28;20025;-67
2022/07/05 02:18:15;;;;;;;3.58;2.10;;;;;;;;;;5072091;28;20035;-67
2022/07/05 02:20:42;;;;;;;3.65;2.10;;;;;;;;;;5072788;28;20043;-67
2022/07/05 02:23:08;;;;;;;5.18;2.30;;;;;;;;;;5073033;28;20037;-68
2022/07/05 02:25:35;;;;;;;6.38;2.30;;;;;;;;;;5073005;28;20027;-67
2022/07/05 02:28:01;;;;;;;7.07;2.20;;;;;;;;;;5072744;28;20032;-68
2022/07/05 02:30:28;;;;;;;5.05;1.77;;;;;;;;;;5072904;28;20034;-67
2022/07/05 02:32:54;;;;;;;6.30;2.13;;;;;;;;;;5071885;28;20403;-67
2022/07/05 02:35:20;;;;;;;3.67;2.20;;;;;;;;;;5072455;28;20106;-67
2022/07/05 02:37:47;;;;;;;3.22;2.92;;;;;;;;;;5072795;28;20024;-68
2022/07/05 02:40:14;;;;;;;3.92;2.50;;;;;;;;;;5072652;28;20031;-67
2022/07/05 02:42:40;;;;;;;5.18;2.30;;;;;;;;;;5057220;28;20012;-67
2022/07/05 02:45:07;;;;;;;3.90;2.20;;;;;;;;;;5072023;28;20037;-68
2022/07/05 02:47:34;;;;;;;4.80;2.45;;;;;;;;;;5072480;28;20023;-68
2022/07/05 02:50:05;;;;;;;3.53;2.00;;;;;;;;;;5072170;28;20036;-68
2022/07/05 02:52:31;;;;;;;;;;;;;;;;;;5072930;28;20519;-67
2022/07/05 02:54:57;;;;;;;5.38;2.30;;;;;;;;;;5072506;28;19909;-68
2022/07/05 02:57:23;;;;;;;6.82;2.08;;;;;;;;;;5071850;28;20392;-67
2022/07/05 02:59:50;;;;;;;4.18;2.50;;;;;;;;;;5071744;28;20025;-67
2022/07/05 03:02:16;;;;;;;7.50;2.53;;;;;;;;;;5072458;28;20035;-67
2022/07/05 03:04:42;;;;;;;6.40;2.30;;;;;;;;;;5070746;28;20094;-68
2022/07/05 03:07:09;;;;;;;3.88;2.20;;;;;;;;;;5072121;28;20040;-67
2022/07/05 03:09:35;;;;;;;4.90;2.17;;;;;;;;;;5072693;28;20025;-68
2022/07/05 03:12:01;;;;;;;2.30;2.00;;;;;;;;;;5071581;28;20414;-68
2022/07/05 03:14:28;;;;;;;6.90;2.35;;;;;;;;;;5072298;28;20020;-67
2022/07/05 03:16:54;;;;;;;7.13;2.22;;;;;;;;;;5072445;28;20031;-68
2022/07/05 03:19:20;;;;;;;4.20;2.28;;;;;;;;;;5072205;28;20492;-67
2022/07/05 03:21:47;;;;;;;3.70;1.95;;;;;;;;;;5072639;28;20082;-67
2022/07/05 03:24:13;;;;;;;3.97;2.10;;;;;;;;;;5071256;28;20031;-67
2022/07/05 03:26:39;;;;;;;5.10;2.05;;;;;;;;;;5071973;28;20035;-68
2022/07/05 03:29:06;;;;;;;5.75;2.30;;;;;;;;;;5072034;28;20070;-68
2022/07/05 03:31:32;;;;;;;4.47;2.30;;;;;;;;;;5072251;28;20036;-68
2022/07/05 03:33:58;;;;;;;3.53;2.20;;;;;;;;;;5071871;28;20028;-68
2022/07/05 03:36:24;;;;;;;4.88;2.20;;;;;;;;;;5071884;28;20363;-67
2022/07/05 03:38:51;;;;;;;3.97;2.75;;;;;;;;;;5071515;28;20031;-67
2022/07/05 03:41:18;;;;;;;2.83;2.10;;;;;;;;;;5072188;28;20035;-67
2022/07/05 03:43:44;;;;;;;4.15;2.35;;;;;;;;;;5072350;28;20020;-69
2022/07/05 03:46:10;;;;;;;4.18;2.25;;;;;;;;;;5072158;28;20453;-67
2022/07/05 03:48:36;;;;;;;5.53;2.38;;;;;;;;;;5071911;28;20020;-67
2022/07/05 03:51:03;;;;;;;3.53;2.20;;;;;;;;;;5071111;28;21015;-67
2022/07/05 03:53:29;;;;;;;5.25;2.63;;;;;;;;;;5072176;28;20021;-67
2022/07/05 03:55:55;;;;;;;3.53;2.40;;;;;;;;;;5071978;28;20021;-67
2022/07/05 03:58:22;;;;;;;3.22;2.22;;;;;;;;;;5071880;28;20570;-67
2022/07/05 04:00:48;;;;;;;6.47;2.30;;;;;;;;;;5071650;28;20020;-68
2022/07/05 04:03:14;;;;;;;4.40;2.28;;;;;;;;;;5071062;28;20434;-68
2022/07/05 04:05:41;;;;;;;5.43;2.20;;;;;;;;;;5072035;28;20027;-68
2022/07/05 04:08:07;;;;;;;4.80;2.45;;;;;;;;;;5071748;28;20050;-67
2022/07/05 04:10:34;;;;;;;6.07;2.60;;;;;;;;;;5071874;28;20401;-68
2022/07/05 04:13:00;;;;;;;6.90;2.25;;;;;;;;;;5071735;28;20012;-67
2022/07/05 04:15:26;;;;;;;3.80;2.30;;;;;;;;;;5072559;28;20051;-67
2022/07/05 04:17:56;;;;;;;5.32;2.70;;;;;;;;;;5074665;28;20035;-67
2022/07/05 04:20:24;;;;;;;2.90;2.10;;;;;;;;;;5075569;28;20069;-67
2022/07/05 04:22:50;;;;;;;4.43;2.50;;;;;;;;;;5075653;28;20019;-67
2022/07/05 04:25:17;;;;;;;4.53;2.22;;;;;;;;;;5075294;28;20035;-68
2022/07/05 04:27:47;;;;;;;5.72;2.55;;;;;;;;;;5075201;28;20020;-68
2022/07/05 04:30:13;;;;;;;4.72;2.10;;;;;;;;;;5072864;28;20044;-67
2022/07/05 04:32:40;;;;;;;3.75;2.50;;;;;;;;;;5074783;28;20031;-67
2022/07/05 04:35:06;;;;;;;3.50;2.33;;;;;;;;;;5075387;28;20031;-68
2022/07/05 04:37:33;;;;;;;4.05;2.30;;;;;;;;;;5075168;28;20029;-68
2022/07/05 04:39:59;;;;;;;3.70;2.28;;;;;;;;;;5075109;28;20405;-67
2022/07/05 04:42:25;;;;;;;3.05;2.40;;;;;;;;;;5075070;28;20475;-68
2022/07/05 04:44:52;;;;;;;6.03;2.50;;;;;;;;;;5071810;28;20126;-67
2022/07/05 04:47:18;;;;;;;4.38;2.53;;;;;;;;;;5074837;28;20526;-68
2022/07/05 04:49:44;;;;;;;10.30;2.30;;;;;;;;;;5074746;28;20032;-68
2022/07/05 04:52:11;;;;;;;4.97;2.45;;;;;;;;;;5074849;28;20043;-67
2022/07/05 04:54:37;;;;;;;7.55;2.53;;;;;;;;;;5074829;28;20024;-68
2022/07/05 04:57:04;;;;;;;3.17;2.20;;;;;;;;;;5073875;28;20486;-67
2022/07/05 04:59:30;;;;;;;6.05;2.60;;;;;;;;;;5074253;28;20027;-67
2022/07/05 05:01:56;;;;;;;5.40;2.05;;;;;;;;;;5074801;28;20028;-67
2022/07/05 05:04:23;;;;;;;6.57;2.35;;;;;;;;;;5074544;28;20028;-67
2022/07/05 05:06:49;;;;;;;3.05;2.20;;;;;;;;;;5074347;28;20021;-67
2022/07/05 05:09:15;;;;;;;3.65;2.65;;;;;;;;;;5073364;28;20505;-67
2022/07/05 05:11:42;;;;;;;8.18;2.60;;;;;;;;;;5074386;28;20032;-67
2022/07/05 05:14:08;;;;;;;3.80;2.40;;;;;;;;;;5074029;28;20028;-67
2022/07/05 05:16:34;;;;;;;5.70;2.45;;;;;;;;;;5074558;28;20032;-67
2022/07/05 05:19:00;;;;;;;4.47;2.58;;;;;;;;;;5074142;28;20009;-67
2022/07/05 05:21:27;;;;;;;4.15;2.60;;;;;;;;;;5074203;28;20028;-67
2022/07/05 05:23:53;;;;;;;6.85;2.40;;;;;;;;;;5073269;28;20050;-67
2022/07/05 05:26:20;;;;;;;6.05;2.40;;;;;;;;;;5074265;28;20020;-67
2022/07/05 05:28:46;;;;;;;4.65;2.53;;;;;;;;;;5073447;28;20028;-67
2022/07/05 05:31:13;;;;;;;3.22;2.30;;;;;;;;;;5074125;28;20334;-67
2022/07/05 05:33:39;;;;;;;6.82;2.35;;;;;;;;;;5072790;28;20043;-67
2022/07/05 05:36:06;;;;;;;4.20;2.25;;;;;;;;;;5073285;28;20017;-67
2022/07/05 05:38:32;;;;;;;7.07;2.20;;;;;;;;;;5073702;28;20388;-67
2022/07/05 05:40:59;;;;;;;7.30;2.15;;;;;;;;;;5073745;28;20021;-67
2022/07/05 05:43:25;;;;;;;6.07;2.20;;;;;;;;;;5073373;28;20036;-67
2022/07/05 05:45:51;;;;;;;5.35;2.33;;;;;;;;;;5073870;28;20069;-66
2022/07/05 05:48:18;;;;;;;4.38;1.98;;;;;;;;;;5072509;28;20032;-67
2022/07/05 05:50:44;;;;;;;3.47;2.33;;;;;;;;;;5074141;28;20024;-67
2022/07/05 05:53:10;;;;;;;6.65;2.40;;;;;;;;;;5072190;28;20490;-67
2022/07/05 05:55:37;;;;;;;3.35;2.28;;;;;;;;;;5073272;28;20028;-67
2022/07/05 05:58:12;;;;;;;4.35;2.40;;;;;;;;;;5069967;28;20038;-68
2022/07/05 06:00:39;;;;;;;5.40;2.28;;;;;;;;;;5070841;28;20682;-67
2022/07/05 06:03:05;;;;;;;2.85;1.98;;;;;;;;;;5072301;28;20028;-67
2022/07/05 06:05:31;;;;;;;3.90;2.20;;;;;;;;;;5071186;28;20036;-67
2022/07/05 06:07:58;;;;;;;4.30;2.30;;;;;;;;;;5071811;28;20101;-69
2022/07/05 06:10:28;;;;;;;3.55;2.15;;;;;;;;;;5074979;28;20036;-68
2022/07/05 06:12:57;;;;;;;4.55;2.30;;;;;;;;;;5072497;28;20545;-68
2022/07/05 06:15:23;;;;;;;3.45;2.45;;;;;;;;;;5072260;28;20031;-68
2022/07/05 06:17:49;;;;;;;7.00;2.40;;;;;;;;;;5071949;28;20030;-68
2022/07/05 06:20:17;;;;;;;6.75;2.60;;;;;;;;;;5072861;28;20016;-69
2022/07/05 06:22:43;;;;;;;3.22;2.33;;;;;;;;;;5072693;28;20497;-68
2022/07/05 06:25:10;;;;;;;4.10;2.70;;;;;;;;;;5072678;28;20017;-69
2022/07/05 06:27:43;;;;;;;4.93;2.28;;;;;;;;;;5072043;28;20489;-69
2022/07/05 06:30:10;;;;;;;3.83;2.50;;;;;;;;;;5066751;28;20086;-68
2022/07/05 06:32:37;;;;;;;4.47;2.30;;;;;;;;;;5069753;28;20020;-69
2022/07/05 06:35:03;;;;;;;10.63;2.28;;;;;;;;;;5071132;28;20023;-68
2022/07/05 06:37:40;;;;;;;3.33;2.20;;;;;;;;;;5068543;28;20100;-68
2022/07/05 06:40:07;;;;;;;5.00;2.28;;;;;;;;;;5072387;28;20030;-68
2022/07/05 06:42:33;;;;;;;3.25;2.55;;;;;;;;;;5071195;28;20024;-69
2022/07/05 06:44:59;;;;;;;3.95;2.42;;;;;;;;;;5071489;28;20032;-68
2022/07/05 06:47:25;;;;;;;8.40;2.50;;;;;;;;;;5070781;28;20026;-69
2022/07/05 06:49:52;;;;;;;4.60;2.80;;;;;;;;;;5072079;28;20029;-68
2022/07/05 06:52:18;;;;;;;3.15;2.30;;;;;;;;;;5071813;28;20025;-68
2022/07/05 06:54:44;;;;;;;5.50;2.92;;;;;;;;;;5071269;28;20031;-68
2022/07/05 06:57:11;;;;;;;3.90;2.50;;;;;;;;;;5070587;28;20400;-70
2022/07/05 06:59:37;;;;;;;3.97;2.35;;;;;;;;;;5071637;28;20037;-68
2022/07/05 07:02:03;;;;;;;4.60;2.50;;;;;;;;;;5070793;28;20013;-69
2022/07/05 07:04:30;;;;;;;8.40;2.92;;;;;;;;;;5068974;28;20371;-68
2022/07/05 07:06:56;;;;;;;3.45;2.72;;;;;;;;;;5068788;28;20031;-68
2022/07/05 07:09:22;;;;;;;8.02;3.00;;;;;;;;;;5074265;28;20052;-68
2022/07/05 07:11:49;;;;;;;5.63;2.30;;;;;;;;;;5070542;28;20032;-68
2022/07/05 07:14:16;;;;;;;5.35;2.72;;;;;;;;;;5068143;28;20025;-68
2022/07/05 07:16:42;;;;;;;7.50;2.47;;;;;;;;;;5069346;28;20029;-68
2022/07/05 07:19:09;;;;;;;7.88;2.42;;;;;;;;;;5070838;28;20481;-70
2022/07/05 07:21:35;;;;;;;11.15;2.88;;;;;;;;;;5069533;28;20017;-69
2022/07/05 07:24:02;;;;;;;6.75;2.28;;;;;;;;;;5069834;28;20024;-68
2022/07/05 07:26:28;;;;;;;8.60;2.70;;;;;;;;;;5070656;28;20489;-69
2022/07/05 07:28:54;;;;;;;8.68;2.30;;;;;;;;;;5070002;28;20040;-69
2022/07/05 07:31:21;;;;;;;4.45;2.50;;;;;;;;;;5068746;28;20028;-68
2022/07/05 07:33:47;;;;;;;7.20;2.22;;;;;;;;;;5070848;28;20047;-69
2022/07/05 07:36:13;;;;;;;4.32;2.35;;;;;;;;;;5069771;28;20097;-69
2022/07/05 07:38:40;;;;;;;3.97;2.20;;;;;;;;;;5070391;28;20029;-69
2022/07/05 07:41:06;;;;;;;10.50;2.53;;;;;;;;;;5070093;28;20481;-69
2022/07/05 07:43:33;;;;;;;3.33;2.03;;;;;;;;;;5070713;28;20024;-69
2022/07/05 07:45:59;;;;;;;7.65;2.22;;;;;;;;;;5070369;28;20533;-69
2022/07/05 07:48:26;;;;;;;6.80;2.20;;;;;;;;;;5070623;28;20024;-69
2022/07/05 07:50:52;;;;;;;6.25;2.00;;;;;;;;;;5071498;28;20024;-69
2022/07/05 07:53:18;;;;;;;4.97;1.92;;;;;;;;;;5071796;28;20386;-69
2022/07/05 07:55:45;;;;;;;3.28;1.90;;;;;;;;;;5074376;28;20027;-69
2022/07/05 07:58:11;;;;;;;6.20;2.13;;;;;;;;;;5075156;28;20039;-70
2022/07/05 08:00:37;;;;;;;6.80;1.83;;;;;;;;;;5075170;28;20408;-69
2022/07/05 08:03:04;;;;;;;3.90;1.50;;;;;;;;;;5073430;28;20404;-69
2022/07/05 08:05:30;;;;;;;3.55;1.80;;;;;;;;;;5075381;28;20016;-69
2022/07/05 08:07:57;;;;;;;2.17;1.75;;;;;;;;;;5075207;28;20041;-69
2022/07/05 08:10:23;;;;;;;3.42;1.85;;;;;;;;;;5073959;28;20086;-69
2022/07/05 08:12:50;;;;;;;2.97;1.63;;;;;;;;;;5074020;28;20400;-69
2022/07/05 08:15:16;;;;;;;6.43;1.88;;;;;;;;;;5071523;28;20031;-69
2022/07/05 08:21:30;;;;;;;4.80;1.67;;;;;;;;;;5073582;28;20031;-69
2022/07/05 08:23:14;;;;;;;5.03;1.85;;;;;;;;;;5072462;28;20025;-68
2022/07/05 08:25:40;;;;;;;7.47;2.10;;;;;;;;;;5072716;28;20009;-69
2022/07/05 08:28:06;;;;;;;3.40;1.80;;;;;;;;;;5074002;28;20024;-69
2022/07/05 08:30:33;;;;;;;3.25;1.80;;;;;;;;;;5071083;28;20028;-69
2022/07/05 08:32:59;;;;;;;28.38;3.72;;;;;;;;;;5073857;28;20044;-70
2022/07/05 08:35:25;;;;;;;13.75;2.72;;;;;;;;;;5073621;28;20493;-70
2022/07/05 08:37:52;;;;;;;9.18;2.00;;;;;;;;;;5073453;28;20499;-70
2022/07/05 08:40:22;;;;;;;7.43;1.85;;;;;;;;;;5073874;28;20446;-70
2022/07/05 08:42:49;;;;;;;5.25;1.83;;;;;;;;;;5074113;28;20040;-70
2022/07/05 08:45:16;;;;;;;2.72;1.73;;;;;;;;;;5072401;28;20444;-70
2022/07/05 08:47:43;;;;;;;6.25;2.10;;;;;;;;;;5080024;28;20024;-71
2022/07/05 08:50:09;;;;;;;3.70;2.10;;;;;;;;;;5075969;28;20089;-70
2022/07/05 08:52:36;;;;;;;5.03;1.98;;;;;;;;;;5072535;28;20017;-70
2022/07/05 08:55:02;;;;;;;2.35;1.73;;;;;;;;;;5073330;28;20029;-70
2022/07/05 08:57:28;;;;;;;2.42;1.80;;;;;;;;;;5084060;28;20023;-70
2022/07/05 08:59:55;;;;;;;4.97;1.65;;;;;;;;;;5072764;28;20021;-70
2022/07/05 09:02:21;;;;;;;6.70;1.60;;;;;;;;;;5072988;28;20043;-70
2022/07/05 09:04:50;;;;;;;3.22;1.80;;;;;;;;;;5073534;28;20031;-70
2022/07/05 09:07:17;;;;;;;2.08;1.40;;;;;;;;;;5072823;28;20027;-70
2022/07/05 09:09:44;;;;;;;3.03;1.67;;;;;;;;;;5075163;28;20028;-65
2022/07/05 09:12:12;;;;;;;5.60;1.60;;;;;;;;;;5078643;28;20370;-66
2022/07/05 09:14:38;;;;;;;5.15;1.60;;;;;;;;;;5074667;28;20039;-65
2022/07/05 09:17:05;;;;;;;5.03;1.50;;;;;;;;;;5073512;28;20586;-65
2022/07/05 09:19:32;;;;;;;4.07;1.70;;;;;;;;;;5073119;28;20439;-65
2022/07/05 09:22:03;;;;;;;4.35;1.67;;;;;;;;;;5071454;28;20021;-65
2022/07/05 09:24:30;;;;;;;3.30;1.80;;;;;;;;;;5065998;28;20528;-65
2022/07/05 09:27:02;;;;;;;5.22;1.90;;;;;;;;;;5079788;28;20035;-65
2022/07/05 09:29:28;;;;;;;3.30;2.08;;;;;;;;;;5065911;28;20521;-65
2022/07/05 09:31:55;;;;;;;3.65;1.52;;;;;;;;;;5067298;28;20024;-65
2022/07/05 09:34:22;;;;;;;5.22;1.98;;;;;;;;;;5071244;28;20052;-64
2022/07/05 09:36:49;;;;;;;4.22;1.70;;;;;;;;;;5071055;28;20507;-64
2022/07/05 09:39:15;;;;;;;3.40;1.80;;;;;;;;;;5071368;28;20491;-65
2022/07/05 09:41:41;;;;;;;4.07;1.80;;;;;;;;;;5083334;28;20032;-64
2022/07/05 09:44:08;;;;;;;3.28;1.80;;;;;;;;;;5076787;28;20028;-64
2022/07/05 09:46:34;;;;;;;3.92;1.88;;;;;;;;;;5072601;28;20032;-65
2022/07/05 09:49:01;;;;;;;3.13;1.60;;;;;;;;;;5072046;28;20081;-65
2022/07/05 09:51:27;;;;;;;2.45;1.65;;;;;;;;;;5071194;28;20035;-65
2022/07/05 09:53:54;;;;;;;4.35;1.73;;;;;;;;;;5075256;28;20057;-64
2022/07/05 09:56:21;;;;;;;4.55;1.60;;;;;;;;;;5072721;28;20031;-64
2022/07/05 09:58:48;;;;;;;3.90;1.80;;;;;;;;;;5072374;28;20069;-64
2022/07/05 10:01:24;;;;;;;2.60;1.60;;;;;;;;;;5071825;28;20017;-64
2022/07/05 10:04:08;;;;;;;2.22;1.60;;;;;;;;;;5072039;28;20020;-64
2022/07/05 10:06:35;;;;;;;3.58;1.75;;;;;;;;;;5088139;28;20415;-65
2022/07/05 10:09:01;;;;;;;4.00;1.80;;;;;;;;;;5070249;28;20040;-64
2022/07/05 10:11:27;;;;;;;4.85;1.50;;;;;;;;;;5073061;28;20039;-65
2022/07/05 10:13:54;;;;;;;4.60;1.83;;;;;;;;;;5071433;28;20025;-64
2022/07/05 10:16:21;;;;;;;5.57;1.77;;;;;;;;;;5071096;28;20028;-64
2022/07/05 10:18:52;;;;;;;5.35;1.65;;;;;;;;;;5072863;28;20381;-64
2022/07/05 10:21:18;;;;;;;4.72;1.75;;;;;;;;;;5069607;28;20421;-64
2022/07/05 10:23:46;;;;;;;3.55;1.60;;;;;;;;;;5069642;28;20033;-65
2022/07/05 10:26:12;;;;;;;5.63;1.70;;;;;;;;;;5072549;28;20068;-64
2022/07/05 10:28:45;;;;;;;7.72;1.98;;;;;;;;;;5072222;28;20413;-65
2022/07/05 10:31:12;;;;;;;2.13;1.35;;;;;;;;;;5071071;28;20035;-65
2022/07/05 10:33:39;;;;;;;2.67;1.50;;;;;;;;;;5071134;28;20020;-65
2022/07/05 10:36:06;;;;;;;2.55;1.55;;;;;;;;;;5070839;28;20028;-65
2022/07/05 10:38:36;;;;;;;6.78;1.77;;;;;;;;;;5071893;28;20487;-65
2022/07/05 10:41:04;;;;;;;8.63;1.60;;;;;;;;;;5071681;28;20032;-65
2022/07/05 10:43:30;;;;;;;9.02;1.50;;;;;;;;;;5071284;28;20020;-66
2022/07/05 10:45:56;;;;;;;6.50;1.73;;;;;;;;;;5071175;28;20032;-66
2022/07/05 10:48:24;;;;;;;2.88;1.80;;;;;;;;;;5070487;28;20043;-65
2022/07/05 10:50:57;;;;;;;6.50;1.77;;;;;;;;;;5070625;28;20394;-68
2022/07/05 10:53:30;;;;;;;6.78;2.00;;;;;;;;;;5070121;28;20378;-67
2022/07/05 10:55:59;;;;;;;2.85;1.48;;;;;;;;;;5071485;28;20026;-68
2022/07/05 10:58:36;;;;;;;5.30;1.50;;;;;;;;;;5071458;28;20027;-67
2022/07/05 11:01:14;;;;;;;3.55;1.35;;;;;;;;;;5071407;28;20021;-67
2022/07/05 11:03:42;;;;;;;4.30;1.73;;;;;;;;;;5055376;28;20386;-69
2022/07/05 11:06:09;;;;;;;12.63;1.80;;;;;;;;;;5070297;28;20029;-65
2022/07/05 11:08:54;;;;;;;6.22;1.58;;;;;;;;;;5070814;28;20044;-66
2022/07/05 11:11:24;;;;;;;4.28;1.60;;;;;;;;;;5069554;28;20036;-66
2022/07/05 11:13:50;;;;;;;5.87;1.70;;;;;;;;;;5071378;28;20370;-66
2022/07/05 11:16:23;;;;;;;4.45;1.25;;;;;;;;;;5070807;28;20282;-66
2022/07/05 11:18:53;;;;;;;7.40;1.80;;;;;;;;;;5071431;28;20028;-66
2022/07/05 11:21:20;;;;;;;;;;;;;;;;;;5070989;28;20035;-66
2022/07/05 11:23:46;;;;;;;21.13;2.03;;;;;;;;;;5071328;28;19912;-67
2022/07/05 11:26:13;;;;;;;5.72;1.63;;;;;;;;;;5075591;28;20025;-68
2022/07/05 11:28:49;;;;;;;7.50;1.58;;;;;;;;;;5073136;28;20033;-67
2022/07/05 11:31:34;;;;;;;3.13;1.50;;;;;;;;;;5075601;28;20039;-66
2022/07/05 11:34:18;;;;;;;5.53;1.20;;;;;;;;;;5082915;28;20054;-66
2022/07/05 11:37:05;;;;;;;6.55;1.50;;;;;;;;;;5059470;28;20020;-66
2022/07/05 11:39:31;;;;;;;5.32;1.65;;;;;;;;;;5074853;28;20083;-66
2022/07/05 11:41:57;;;;;;;4.05;1.60;;;;;;;;;;5074375;28;20034;-66
2022/07/05 11:44:24;;;;;;;6.43;2.05;;;;;;;;;;5074413;28;20374;-66
2022/07/05 11:46:50;;;;;;;6.95;1.75;;;;;;;;;;5074231;28;20042;-67
2022/07/05 11:49:20;;;;;;;9.02;1.77;;;;;;;;;;5085468;28;20033;-67
2022/07/05 11:52:00;;;;;;;2.60;1.35;;;;;;;;;;5077257;28;20036;-66
2022/07/05 11:54:27;;;;;;;4.15;1.77;;;;;;;;;;5077997;28;20379;-67
2022/07/05 11:56:54;;;;;;;5.85;1.48;;;;;;;;;;5071517;28;20036;-68
2022/07/05 11:59:24;;;;;;;3.08;1.33;;;;;;;;;;5073260;28;20020;-68
2022/07/05 12:01:50;;;;;;;;;;;;;;;;;;5075108;28;20032;-67
2022/07/05 12:04:22;;;;;;;5.35;1.50;;;;;;;;;;5077680;28;19919;-67
2022/07/05 12:06:50;;;;;;;4.15;1.40;;;;;;;;;;5074393;28;20027;-68
2022/07/05 12:09:22;;;;;;;4.28;1.25;;;;;;;;;;5073397;28;20041;-68
2022/07/05 12:14:52;;;;;;;3.97;1.33;;;;;;;;;;5074646;28;20028;-68
2022/07/05 12:17:19;;;;;;;3.45;1.27;;;;;;;;;;5076131;28;20036;-68
2022/07/05 12:19:46;;;;;;;3.42;1.42;;;;;;;;;;5080755;28;20477;-68
2022/07/05 12:22:14;;;;;;;6.35;1.30;;;;;;;;;;5072904;28;20485;-68
2022/07/05 12:24:40;;;;;;;4.57;1.23;;;;;;;;;;5072396;28;20024;-67
2022/07/05 12:27:10;;;;;;;11.77;1.80;;;;;;;;;;5072797;28;20028;-67
2022/07/05 12:29:36;;;;;;;4.40;1.45;;;;;;;;;;5073215;28;20039;-67
2022/07/05 12:32:04;;;;;;;5.43;1.73;;;;;;;;;;5074202;28;20493;-67
2022/07/05 12:34:30;;;;;;;4.03;1.60;;;;;;;;;;5077435;28;20012;-68
2022/07/05 12:36:58;;;;;;;4.45;1.27;;;;;;;;;;5074928;28;20038;-68
2022/07/05 12:39:24;;;;;;;4.15;1.20;;;;;;;;;;5072641;28;20032;-67
2022/07/05 12:41:51;;;;;;;3.22;1.48;;;;;;;;;;5074340;28;20493;-67
2022/07/05 12:44:21;;;;;;;3.38;1.45;;;;;;;;;;5076400;28;20025;-67
2022/07/05 12:46:49;;;;;;;4.88;1.40;;;;;;;;;;5075527;28;20036;-67
2022/07/05 12:49:15;;;;;;;4.03;1.58;;;;;;;;;;5075339;28;20043;-68
2022/07/05 12:51:43;;;;;;;5.20;1.33;;;;;;;;;;5072186;28;20020;-67
2022/07/05 13:00:05;;;;;;;5.57;1.23;;;;;;;;;;5069979;28;20031;-68
2022/07/05 13:02:42;;;;;;;3.42;1.30;;;;;;;;;;5075346;28;20025;-68
2022/07/05 13:05:20;;;;;;;2.00;1.33;;;;;;;;;;5074543;28;20039;-68
2022/07/05 13:07:46;;;;;;;4.30;1.30;;;;;;;;;;5071025;28;20036;-68
2022/07/05 13:10:16;;;;;;;4.60;1.40;;;;;;;;;;5072700;28;20094;-68
2022/07/05 13:12:43;;;;;;;4.35;1.50;;;;;;;;;;5070889;28;20032;-68
2022/07/05 13:15:10;;;;;;;3.60;1.30;;;;;;;;;;5075194;28;20366;-68
2022/07/05 13:17:37;;;;;;;6.63;1.60;;;;;;;;;;5074826;28;20025;-68
2022/07/05 13:20:03;;;;;;;2.78;1.33;;;;;;;;;;5073117;28;20037;-68
2022/07/05 13:22:30;;;;;;;2.55;1.40;;;;;;;;;;5073077;28;20033;-68
2022/07/05 13:24:56;;;;;;;4.68;1.40;;;;;;;;;;5073272;28;20024;-67
2022/07/05 13:27:22;;;;;;;4.90;1.60;;;;;;;;;;5073202;28;20029;-67
2022/07/05 13:29:49;;;;;;;5.63;1.60;;;;;;;;;;5083260;28;20043;-67
2022/07/05 13:32:16;;;;;;;8.75;1.80;;;;;;;;;;5072692;28;20024;-67
2022/07/05 13:34:48;;;;;;;3.38;1.42;;;;;;;;;;5072875;28;20032;-68
2022/07/05 13:37:15;;;;;;;6.50;1.50;;;;;;;;;;5076262;28;20025;-67
2022/07/05 13:39:41;;;;;;;7.20;1.48;;;;;;;;;;5070578;28;21571;-67
2022/07/05 13:42:07;;;;;;;9.48;1.48;;;;;;;;;;5072963;28;20029;-67
2022/07/05 13:44:34;;;;;;;7.45;1.92;;;;;;;;;;5072618;28;20027;-67
2022/07/05 13:47:01;;;;;;;8.15;1.75;;;;;;;;;;5074177;28;20563;-67
2022/07/05 13:49:27;;;;;;;11.93;2.08;;;;;;;;;;5070374;28;20048;-67
2022/07/05 13:51:53;;;;;;;7.70;1.67;;;;;;;;;;5072332;28;20025;-67
2022/07/05 13:54:20;;;;;;;10.50;1.40;;;;;;;;;;5076326;28;20517;-66
2022/07/05 13:56:46;;;;;;;4.25;1.42;;;;;;;;;;5075211;28;20019;-67
2022/07/05 13:59:12;;;;;;;6.10;1.38;;;;;;;;;;5072187;28;20035;-67
2022/07/05 14:01:39;;;;;;;5.13;1.80;;;;;;;;;;5076474;28;20030;-68
2022/07/05 14:04:05;;;;;;;8.32;1.75;;;;;;;;;;5073533;28;20020;-68
2022/07/05 14:06:34;;;;;;;6.95;2.03;;;;;;;;;;5072345;28;20025;-68
2022/07/05 14:09:01;;;;;;;3.47;1.42;;;;;;;;;;5070773;28;20045;-68
2022/07/05 14:11:27;;;;;;;4.22;1.85;;;;;;;;;;5075480;28;20020;-67
2022/07/05 14:13:54;;;;;;;9.27;2.13;;;;;;;;;;5078185;28;20123;-67
2022/07/05 14:16:21;;;;;;;6.72;2.15;;;;;;;;;;5071473;28;20032;-67
2022/07/05 14:18:49;;;;;;;11.55;2.40;;;;;;;;;;5078142;28;20032;-68
2022/07/05 14:21:17;;;;;;;5.60;1.67;;;;;;;;;;5085533;28;20030;-68
2022/07/05 14:23:46;;;;;;;8.15;2.10;;;;;;;;;;5073392;28;20039;-67
2022/07/05 14:26:13;;;;;;;8.77;2.15;;;;;;;;;;5062732;28;20045;-67
2022/07/05 14:28:39;;;;;;;8.73;1.92;;;;;;;;;;5064645;28;20021;-68
2022/07/05 14:31:05;;;;;;;11.57;2.15;;;;;;;;;;5072742;28;20043;-67
2022/07/05 14:33:32;;;;;;;9.25;2.15;;;;;;;;;;5072338;28;20017;-68
2022/07/05 14:35:58;;;;;;;7.20;1.98;;;;;;;;;;5071338;28;20024;-67
2022/07/05 14:38:25;;;;;;;5.82;1.90;;;;;;;;;;5074793;28;20022;-68
2022/07/05 14:40:51;;;;;;;8.45;2.25;;;;;;;;;;5071433;28;20036;-66
2022/07/05 14:43:17;;;;;;;9.70;2.17;;;;;;;;;;5072139;28;20039;-67
2022/07/05 14:45:44;;;;;;;7.75;2.00;;;;;;;;;;5071844;28;20141;-67
2022/07/05 14:48:10;;;;;;;4.63;1.83;;;;;;;;;;5070386;28;20031;-67
2022/07/05 14:50:36;;;;;;;9.95;1.88;;;;;;;;;;5071772;28;20036;-68
2022/07/05 14:53:07;;;;;;;7.53;2.00;;;;;;;;;;5072090;28;20029;-68
2022/07/05 14:55:35;;;;;;;9.82;1.70;;;;;;;;;;5075677;28;20050;-67